Springdale, Canada
Current Conditions -  °F | °C
As of 11:00 AM on Sunday 23 Nov 2014 (Local Time) from CYDF Reporting Station
Snow Showers Snow Showers  
Wind Chill: 25°   Ceiling: 1300
Heat Index: 34°   Visibility: 1.5mi
Dew Point: 30°   Wind: 12mph
Humidity: 87%   Direction: 230°SW
Pressure: 29.62"   Gusts: 23mph
Location:  49.48°N, 56.1°W
Report Text: CYDF 231400Z 23010G20KT 1 1/2SM -SHSN BKN013 OVC031 01/M01 A2962 RMK SC6SC2 SLP031
Loading
Personal Weather Stations






























Interactive Weather Map New forecast layout! Learn more

10-Day Weather Forecast

Advertisements
Track Severe Weather on mobile